Time;durP1;ratioP1;P1;durP2;ratioP2;P2;SDS_P1;SDS_P2;PMS_P1;PMS_P2;Temp;Humidity;BMP_temperature;BMP_pressure;BME280_temperature;BME280_humidity;BME280_pressure;Samples;Min_cycle;Max_cycle;Signal;HPM_P1;HPM_P2
2021/12/26 00:01:40;;;;;;;365.70;137.95;;;;;;;-9.90;72.23;100265.53;2043862;87;31039;-78
2021/12/26 00:04:42;;;;;;;367.05;139.60;;;;;;;-9.91;72.20;100257.30;2043945;87;34213;-80
2021/12/26 00:07:44;;;;;;;381.40;140.12;;;;;;;-9.93;72.21;100254.67;2044002;87;29150;-78
2021/12/26 00:10:48;;;;;;;363.75;140.97;;;;;;;-9.95;72.18;100253.73;2043873;87;27595;-83
2021/12/26 00:13:54;;;;;;;355.32;134.85;;;;;;;-9.97;72.27;100258.38;2043915;87;27741;-75
2021/12/26 00:16:56;;;;;;;371.40;135.90;;;;;;;-9.95;72.14;100259.31;2043747;87;35146;-76
2021/12/26 00:19:58;;;;;;;356.73;134.25;;;;;;;-9.97;71.99;100257.08;2043768;87;32940;-80
2021/12/26 00:23:00;;;;;;;359.90;132.75;;;;;;;-9.98;71.95;100257.91;2043672;87;29178;-74
2021/12/26 00:26:02;;;;;;;352.25;136.28;;;;;;;-10.01;71.80;100261.30;2044140;87;27758;-80
2021/12/26 00:29:05;;;;;;;347.67;133.70;;;;;;;-10.03;71.78;100264.67;2044088;87;29639;-82
2021/12/26 00:32:08;;;;;;;353.30;128.85;;;;;;;-10.07;71.63;100268.45;2044139;87;31632;-81
2021/12/26 00:35:12;;;;;;;347.88;126.70;;;;;;;-10.08;71.68;100276.16;2043833;87;32966;-81
2021/12/26 00:38:15;;;;;;;349.47;125.53;;;;;;;-10.11;71.79;100267.87;2043861;87;30216;-81
2021/12/26 00:41:19;;;;;;;345.88;122.45;;;;;;;-10.12;71.78;100270.43;2043884;87;27689;-76
2021/12/26 00:44:20;;;;;;;312.85;112.40;;;;;;;-10.14;71.62;100269.06;2043683;87;29075;-74
2021/12/26 00:47:29;;;;;;;315.15;115.32;;;;;;;-10.15;71.55;100263.41;2043740;87;31908;-77
2021/12/26 00:50:32;;;;;;;310.95;116.62;;;;;;;-10.19;71.55;100261.58;2043220;87;34248;-79
2021/12/26 00:53:34;;;;;;;316.95;121.33;;;;;;;-10.19;71.77;100264.17;2043964;87;29363;-82
2021/12/26 00:56:36;;;;;;;330.75;119.60;;;;;;;-10.20;71.84;100256.32;2044411;87;27761;-78
2021/12/26 00:59:38;;;;;;;312.08;116.65;;;;;;;-10.21;71.80;100256.75;2043969;87;29937;-78
2021/12/26 01:02:40;;;;;;;320.07;117.75;;;;;;;-10.22;71.71;100266.22;2043548;87;31424;-70
2021/12/26 01:05:47;;;;;;;325.00;121.10;;;;;;;-10.24;71.62;100256.21;2044248;87;33792;-70
2021/12/26 01:08:50;;;;;;;320.17;114.80;;;;;;;-10.26;71.72;100255.31;2043994;87;29378;-74
2021/12/26 01:11:56;;;;;;;314.80;115.72;;;;;;;-10.26;72.03;100259.59;2044013;87;27734;-69
2021/12/26 01:15:03;;;;;;;308.85;113.50;;;;;;;-10.27;71.87;100261.31;2043524;87;29910;-62
2021/12/26 01:18:00;;;;;;;307.90;110.60;;;;;;;-10.26;71.89;100264.77;2043210;87;31076;-66
2021/12/26 01:21:16;;;;;;;298.48;107.12;;;;;;;-10.26;71.92;100262.19;2043493;87;34277;-64
2021/12/26 01:24:14;;;;;;;293.95;110.05;;;;;;;-10.26;71.76;100263.48;2041323;87;29572;-77
2021/12/26 01:27:16;;;;;;;283.75;106.43;;;;;;;-10.26;71.73;100268.26;2044014;87;27686;-66
2021/12/26 01:30:18;;;;;;;289.65;106.87;;;;;;;-10.27;71.73;100261.72;2043412;87;29872;-61
2021/12/26 01:33:20;;;;;;;301.15;107.58;;;;;;;-10.28;71.73;100263.84;2043537;87;31774;-63
2021/12/26 01:36:23;;;;;;;302.22;109.78;;;;;;;-10.30;71.68;100266.39;2043693;87;33325;-71
2021/12/26 01:39:26;;;;;;;297.52;109.90;;;;;;;-10.31;71.63;100262.03;2043580;87;30636;-75
2021/12/26 01:42:28;;;;;;;328.62;114.90;;;;;;;-10.33;71.70;100268.86;2043718;85;27711;-61
2021/12/26 01:45:30;;;;;;;310.73;112.97;;;;;;;-10.33;71.65;100265.38;2043203;87;29913;-66
2021/12/26 01:48:33;;;;;;;374.42;132.20;;;;;;;-10.33;71.70;100265.38;2043348;87;32210;-63
2021/12/26 01:51:35;;;;;;;345.00;125.70;;;;;;;-10.34;71.92;100260.63;2043213;87;33393;-61
2021/12/26 01:54:39;;;;;;;354.60;128.40;;;;;;;-10.37;71.93;100251.45;2043730;87;28805;-62
2021/12/26 01:57:41;;;;;;;356.02;125.87;;;;;;;-10.40;71.91;100248.78;2043716;87;27684;-80
2021/12/26 02:00:48;;;;;;;329.48;119.62;;;;;;;-10.41;72.05;100246.63;2043788;87;28989;-62
2021/12/26 02:03:50;;;;;;;331.50;122.90;;;;;;;-10.46;71.93;100247.30;2043639;87;31192;-70
2021/12/26 02:06:52;;;;;;;318.67;119.05;;;;;;;-10.48;72.12;100251.11;2043690;87;33393;-61
2021/12/26 02:09:54;;;;;;;332.73;121.40;;;;;;;-10.46;72.20;100248.59;2043854;87;30471;-61
2021/12/26 02:12:56;;;;;;;330.52;119.02;;;;;;;-10.44;72.12;100246.95;2044026;87;28298;-65
2021/12/26 02:15:57;;;;;;;320.88;118.15;;;;;;;-10.42;72.10;100252.62;2043568;87;30063;-65
2021/12/26 02:18:59;;;;;;;329.18;119.75;;;;;;;-10.39;72.04;100259.22;2043717;87;32218;-77
2021/12/26 02:25:27;;;;;;;;;;;;;;;-10.37;72.05;100248.86;2046064;87;28562;-70
2021/12/26 02:28:19;;;;;;;280.12;101.15;;;;;;;-10.37;71.82;100246.27;2040821;87;27650;-76
2021/12/26 02:31:24;;;;;;;284.80;100.25;;;;;;;-10.39;71.95;100244.08;2043458;87;29545;-76
2021/12/26 02:34:26;;;;;;;277.57;101.18;;;;;;;-10.39;71.88;100250.16;2043803;87;31410;-77
2021/12/26 02:37:28;;;;;;;284.98;106.35;;;;;;;-10.39;71.94;100248.86;2043396;87;34194;-69
2021/12/26 02:40:30;;;;;;;287.85;107.10;;;;;;;-10.39;71.82;100250.16;2043523;87;28819;-78
2021/12/26 02:43:33;;;;;;;287.30;104.72;;;;;;;-10.39;71.87;100246.66;2043624;87;27681;-76
2021/12/26 02:46:35;;;;;;;293.45;106.22;;;;;;;-10.37;71.98;100252.75;2043812;87;28648;-69
2021/12/26 02:49:37;;;;;;;292.05;107.58;;;;;;;-10.36;72.14;100249.33;2043544;87;31439;-74
2021/12/26 02:52:38;;;;;;;300.27;106.58;;;;;;;-10.34;72.17;100249.41;2043895;87;33409;-69
2021/12/26 02:55:41;;;;;;;299.02;108.50;;;;;;;-10.32;72.15;100252.50;2043955;87;29246;-62
2021/12/26 02:58:43;;;;;;;293.00;105.00;;;;;;;-10.28;72.26;100254.77;2043865;87;28230;-66
2021/12/26 03:01:45;;;;;;;271.32;98.47;;;;;;;-10.23;72.35;100258.41;2043627;86;29383;-75
2021/12/26 03:04:47;;;;;;;260.60;97.35;;;;;;;-10.20;72.39;100249.45;2043335;87;32276;-80
2021/12/26 03:07:49;;;;;;;261.68;96.32;;;;;;;-10.16;72.37;100246.11;2043576;87;34219;-78
2021/12/26 03:10:52;;;;;;;262.38;96.72;;;;;;;-10.13;72.43;100246.22;2044104;87;29696;-68
2021/12/26 03:13:54;;;;;;;267.13;93.75;;;;;;;-10.11;72.33;100243.27;2044634;87;27776;-61
2021/12/26 03:16:56;;;;;;;265.68;95.05;;;;;;;-10.07;72.40;100253.30;2044101;87;29040;-61
2021/12/26 03:19:57;;;;;;;255.60;97.15;;;;;;;-10.03;72.40;100257.77;2021089;87;31832;-63
2021/12/26 03:23:01;;;;;;;257.45;92.10;;;;;;;-10.00;72.28;100253.09;2043930;87;33368;-61
2021/12/26 03:26:05;;;;;;;257.65;94.17;;;;;;;-9.98;72.27;100254.02;2043868;87;30497;-61
2021/12/26 03:29:07;;;;;;;242.75;95.57;;;;;;;-9.95;72.30;100248.95;2043891;87;27592;-67
2021/12/26 03:32:10;;;;;;;269.52;97.97;;;;;;;-9.96;72.18;100243.30;2043943;87;29045;-61
2021/12/26 03:35:12;;;;;;;266.27;94.40;;;;;;;-9.96;72.16;100251.07;2043456;87;32338;-60
2021/12/26 03:38:15;;;;;;;253.55;96.82;;;;;;;-9.96;72.12;100253.66;2044074;87;33805;-74
2021/12/26 03:41:17;;;;;;;271.98;97.88;;;;;;;-9.96;72.13;100258.84;2043822;87;29406;-61
2021/12/26 03:44:19;;;;;;;259.50;97.12;;;;;;;-9.96;72.15;100264.03;2044288;87;27696;-62
2021/12/26 03:47:21;;;;;;;267.15;98.97;;;;;;;-9.95;72.15;100269.67;2044218;87;29631;-61
2021/12/26 03:50:27;;;;;;;267.85;97.05;;;;;;;-9.93;72.20;100270.22;2043427;87;32376;-60
2021/12/26 03:53:27;;;;;;;;;;;;;;;-9.90;72.17;100269.82;2046482;87;32981;-62
2021/12/26 03:56:31;;;;;;;242.80;91.30;;;;;;;-9.89;72.17;100271.19;2043732;87;29764;-61
2021/12/26 03:59:33;;;;;;;269.17;95.33;;;;;;;-9.87;72.21;100272.52;2043181;87;27684;-69
2021/12/26 04:02:35;;;;;;;254.82;91.35;;;;;;;-9.88;72.04;100276.84;2043906;87;29220;-74
2021/12/26 04:05:37;;;;;;;265.57;90.80;;;;;;;-9.90;71.91;100278.50;2043851;87;30943;-68
2021/12/26 04:08:38;;;;;;;264.63;93.20;;;;;;;-9.93;71.85;100270.22;2043892;87;34136;-62
2021/12/26 04:11:44;;;;;;;243.27;90.17;;;;;;;-9.95;71.68;100271.88;2044183;87;30264;-68
2021/12/26 04:14:46;;;;;;;239.78;86.40;;;;;;;-9.97;71.79;100274.82;2043518;87;28219;-73
2021/12/26 04:17:51;;;;;;;231.70;88.05;;;;;;;-9.96;71.80;100275.69;2043940;87;29821;-73
2021/12/26 04:20:55;;;;;;;238.37;88.15;;;;;;;-9.95;71.94;100270.97;2014994;87;28481;-60
2021/12/26 04:23:57;;;;;;;225.45;85.67;;;;;;;-9.93;71.95;100277.99;2043847;87;33303;-61
2021/12/26 04:26:59;;;;;;;233.07;88.60;;;;;;;-9.91;72.00;100280.62;2043628;87;29945;-60
2021/12/26 04:30:01;;;;;;;238.30;87.53;;;;;;;-9.91;71.92;100271.55;2043682;87;27686;-61
2021/12/26 04:33:04;;;;;;;230.03;85.28;;;;;;;-9.93;72.05;100272.80;2043519;87;29925;-60
2021/12/26 04:36:06;;;;;;;223.30;86.92;;;;;;;-9.92;71.95;100276.27;2043464;87;32306;-60
2021/12/26 04:39:08;;;;;;;236.80;88.03;;;;;;;-9.95;71.68;100278.34;2043705;87;33815;-67
2021/12/26 04:42:10;;;;;;;244.90;84.65;;;;;;;-9.98;71.62;100274.75;2043588;87;29870;-60
2021/12/26 04:45:14;;;;;;;225.80;85.53;;;;;;;-10.01;71.63;100278.14;2044278;87;27653;-67
2021/12/26 04:48:16;;;;;;;215.57;86.60;;;;;;;-10.04;71.54;100281.91;2044209;87;28656;-60
2021/12/26 04:51:18;;;;;;;303.92;115.05;;;;;;;-10.08;71.58;100286.12;2043381;87;32007;-68
2021/12/26 04:54:20;;;;;;;278.85;106.45;;;;;;;-10.11;71.68;100283.84;2043644;87;33825;-67
2021/12/26 04:57:22;;;;;;;234.95;90.10;;;;;;;-10.14;71.79;100291.08;2043767;87;29330;-60
2021/12/26 05:00:28;;;;;;;223.00;83.07;;;;;;;-10.13;71.81;100286.80;2043277;87;27722;-64
2021/12/26 05:03:30;;;;;;;232.30;86.00;;;;;;;-10.17;71.80;100287.09;2043473;87;28884;-66
2021/12/26 05:06:32;;;;;;;226.70;83.35;;;;;;;-10.15;71.88;100292.34;2043405;87;30909;-79
2021/12/26 05:09:34;;;;;;;224.73;84.13;;;;;;;-10.17;71.85;100287.52;2043290;87;34219;-63
2021/12/26 05:12:36;;;;;;;226.25;82.42;;;;;;;-10.17;71.75;100293.56;2043743;87;30510;-76
2021/12/26 05:15:38;;;;;;;206.85;77.78;;;;;;;-10.19;71.63;100293.05;2043805;87;27674;-71
2021/12/26 05:18:40;;;;;;;232.27;83.90;;;;;;;-10.20;71.61;100291.29;2043662;87;29024;-70
2021/12/26 05:21:41;;;;;;;215.40;80.07;;;;;;;-10.23;71.61;100294.67;2043695;87;31849;-64
2021/12/26 05:24:43;;;;;;;215.40;82.47;;;;;;;-10.24;71.66;100298.08;2043747;87;33409;-62
2021/12/26 05:27:45;;;;;;;228.65;82.82;;;;;;;-10.27;71.63;100293.69;2043455;87;30572;-63
2021/12/26 05:30:47;;;;;;;217.65;83.12;;;;;;;-10.31;71.62;100298.69;2044242;87;27696;-67
2021/12/26 05:33:48;;;;;;;232.15;86.87;;;;;;;-10.34;71.81;100296.88;2043980;87;29217;-64
2021/12/26 05:36:50;;;;;;;219.62;86.55;;;;;;;-10.36;71.84;100302.42;2043762;87;31154;-78
2021/12/26 05:39:52;;;;;;;228.70;85.77;;;;;;;-10.36;71.88;100309.32;2043824;87;34112;-66
2021/12/26 05:42:54;;;;;;;213.62;83.42;;;;;;;-10.36;71.80;100305.44;2043507;87;29553;-80
2021/12/26 05:45:56;;;;;;;237.55;91.92;;;;;;;-10.38;71.63;100300.22;2043727;87;27633;-77
2021/12/26 05:48:59;;;;;;;263.80;104.15;;;;;;;-10.39;71.70;100304.92;2043310;86;29819;-79
2021/12/26 05:52:01;;;;;;;258.25;105.67;;;;;;;-10.43;71.54;100300.06;2035671;87;30964;-70
2021/12/26 05:55:05;;;;;;;252.25;99.50;;;;;;;-10.48;71.51;100306.78;2035836;87;33114;-65
2021/12/26 05:58:07;;;;;;;249.62;98.55;;;;;;;-10.53;71.56;100303.16;2035777;87;30152;-72
2021/12/26 06:01:11;;;;;;;238.75;94.58;;;;;;;-10.58;71.50;100305.99;2036081;87;27716;-72
2021/12/26 06:04:12;;;;;;;236.00;92.90;;;;;;;-10.63;71.59;100303.25;2035716;87;28769;-75
2021/12/26 06:07:14;;;;;;;238.95;93.85;;;;;;;-10.65;71.63;100304.89;2035736;87;32193;-73
2021/12/26 06:10:16;;;;;;;253.52;97.50;;;;;;;-10.67;71.49;100306.97;2035697;87;33004;-74
2021/12/26 06:13:18;;;;;;;253.60;97.88;;;;;;;-10.69;71.49;100311.67;2035326;87;30699;-76
2021/12/26 06:16:20;;;;;;;245.00;94.07;;;;;;;-10.70;71.43;100313.79;2035528;87;27903;-65
2021/12/26 06:19:21;;;;;;;232.12;94.65;;;;;;;-10.72;71.44;100313.25;2035566;87;28775;-72
2021/12/26 06:22:23;;;;;;;226.12;81.70;;;;;;;-10.74;71.62;100326.54;2035226;87;32294;-67
2021/12/26 06:25:25;;;;;;;231.50;81.67;;;;;;;-10.81;72.08;100318.97;2035636;87;33345;-61
2021/12/26 06:28:28;;;;;;;220.67;81.12;;;;;;;-10.87;72.40;100320.05;2035593;87;30126;-73
2021/12/26 06:31:31;;;;;;;239.38;84.03;;;;;;;-10.88;72.66;100317.86;2035799;87;27718;-62
2021/12/26 06:34:32;;;;;;;236.10;83.05;;;;;;;-10.88;72.85;100323.46;2035851;87;28696;-66
2021/12/26 06:37:35;;;;;;;261.43;92.50;;;;;;;-10.86;72.81;100329.58;2013549;87;32213;-61
2021/12/26 06:40:37;;;;;;;244.32;88.62;;;;;;;-10.82;72.90;100327.55;2036076;87;33120;-68
2021/12/26 06:43:40;;;;;;;256.10;86.78;;;;;;;-10.79;72.80;100334.14;2035631;87;30561;-77
2021/12/26 06:46:41;;;;;;;238.92;82.60;;;;;;;-10.79;72.69;100323.79;2036031;87;27698;-79
2021/12/26 06:49:43;;;;;;;232.15;88.50;;;;;;;-10.75;72.82;100328.27;2037159;87;29836;-79
2021/12/26 06:52:45;;;;;;;226.27;86.17;;;;;;;-10.76;72.69;100331.67;2044081;87;32380;-78
2021/12/26 06:55:49;;;;;;;233.65;90.25;;;;;;;-10.77;72.54;100336.38;2043745;87;33448;-77
2021/12/26 06:58:51;;;;;;;195.55;73.40;;;;;;;-10.76;72.67;100334.26;2043747;87;29716;-77
2021/12/26 07:01:53;;;;;;;234.15;86.37;;;;;;;-10.76;72.72;100333.39;2044157;87;27736;-77
2021/12/26 07:04:55;;;;;;;252.30;90.53;;;;;;;-10.75;72.74;100335.16;2043892;87;29807;-78
2021/12/26 07:07:57;;;;;;;244.15;89.55;;;;;;;-10.76;72.64;100338.14;2043925;87;32219;-75
2021/12/26 07:10:59;;;;;;;280.98;94.92;;;;;;;-10.77;72.66;100337.67;2044157;87;34058;-71
2021/12/26 07:14:01;;;;;;;266.80;100.07;;;;;;;-10.78;72.64;100338.49;2044437;87;30568;-74
2021/12/26 07:17:03;;;;;;;290.92;98.60;;;;;;;-10.79;72.59;100347.08;2045009;87;27716;-72
2021/12/26 07:20:07;;;;;;;289.72;97.10;;;;;;;-10.79;72.74;100345.78;2044153;87;29483;-64
2021/12/26 07:23:09;;;;;;;259.85;96.08;;;;;;;-10.80;72.71;100354.37;2044255;87;31845;-70
2021/12/26 07:26:11;;;;;;;267.62;97.82;;;;;;;-10.82;72.65;100353.85;2043875;87;33629;-65
2021/12/26 07:29:13;;;;;;;258.05;93.65;;;;;;;-10.80;72.77;100355.66;2043989;87;29870;-61
2021/12/26 07:32:15;;;;;;;241.55;91.87;;;;;;;-10.77;72.69;100358.38;2043969;87;28255;-70
2021/12/26 07:35:17;;;;;;;262.40;96.90;;;;;;;-10.74;72.72;100358.89;2043911;87;29695;-65
2021/12/26 07:38:19;;;;;;;258.68;96.63;;;;;;;-10.70;72.69;100370.73;2044093;87;31469;-72
2021/12/26 07:41:22;;;;;;;243.67;89.50;;;;;;;-10.62;72.84;100370.12;2044107;87;33929;-75
2021/12/26 07:44:24;;;;;;;242.85;89.32;;;;;;;-10.54;72.86;100370.00;2043541;87;30553;-65
2021/12/26 07:47:26;;;;;;;251.12;90.83;;;;;;;-10.44;72.93;100371.23;2043833;87;27670;-61
2021/12/26 07:50:29;;;;;;;263.55;97.88;;;;;;;-10.35;72.97;100369.34;2041400;86;29824;-63
2021/12/26 07:53:30;;;;;;;245.80;91.92;;;;;;;-10.26;73.00;100362.80;2035731;87;31139;-66
2021/12/26 07:56:33;;;;;;;258.20;91.28;;;;;;;-10.10;73.12;100365.92;2036024;87;33604;-64
2021/12/26 07:59:35;;;;;;;232.45;82.27;;;;;;;-9.95;73.17;100367.75;2035443;87;30540;-61
2021/12/26 08:02:38;;;;;;;217.62;81.92;;;;;;;-9.80;73.24;100360.03;2035731;87;27618;-72
2021/12/26 08:05:40;;;;;;;240.32;84.45;;;;;;;-9.66;73.33;100360.47;2035777;87;28738;-61
2021/12/26 08:08:44;;;;;;;232.22;81.82;;;;;;;-9.60;73.04;100365.00;2035169;87;28623;-60
2021/12/26 08:11:47;;;;;;;236.90;87.53;;;;;;;-9.53;73.15;100364.36;2035396;87;33052;-64
2021/12/26 08:14:48;;;;;;;241.60;88.03;;;;;;;-9.44;73.28;100360.78;2035745;86;29743;-65
2021/12/26 08:17:50;;;;;;;208.28;80.40;;;;;;;-9.29;73.35;100355.19;2035535;86;27702;-67
2021/12/26 08:20:53;;;;;;;213.87;73.55;;;;;;;-9.14;73.34;100348.31;2035667;87;29064;-61
2021/12/26 08:23:55;;;;;;;198.13;76.37;;;;;;;-9.03;73.19;100349.95;2035480;87;31861;-64
2021/12/26 08:26:56;;;;;;;217.37;79.87;;;;;;;-8.99;72.98;100349.18;2035808;87;34090;-61
2021/12/26 08:30:00;;;;;;;197.98;74.15;;;;;;;-8.92;73.11;100346.34;2035709;87;30429;-62
2021/12/26 08:33:05;;;;;;;195.35;73.05;;;;;;;-8.81;73.24;100350.17;2035544;87;27631;-63
2021/12/26 08:36:05;;;;;;;215.15;77.30;;;;;;;-8.73;73.38;100349.96;2035139;87;29995;-60
2021/12/26 08:39:07;;;;;;;189.03;72.62;;;;;;;-8.64;73.14;100352.37;2035766;87;32277;-66
2021/12/26 08:42:12;;;;;;;186.32;72.03;;;;;;;-8.56;73.32;100351.77;2035880;87;33350;-72
2021/12/26 08:45:14;;;;;;;186.97;72.95;;;;;;;-8.43;73.38;100346.88;2035637;87;30616;-62
2021/12/26 08:48:17;;;;;;;193.07;72.70;;;;;;;-8.29;73.57;100349.88;2035522;87;27628;-61
2021/12/26 08:51:21;;;;;;;203.55;84.45;;;;;;;-8.16;73.44;100350.66;2039084;86;28675;-62
2021/12/26 08:54:26;;;;;;;176.32;68.78;;;;;;;-8.04;73.54;100347.92;2042582;87;32204;-74
2021/12/26 08:57:27;;;;;;;146.13;56.10;;;;;;;-7.92;73.84;100349.54;2043823;87;34419;-69
2021/12/26 09:00:32;;;;;;;183.78;72.72;;;;;;;-7.82;73.44;100346.36;2043493;87;30327;-78
2021/12/26 09:03:37;;;;;;;173.43;70.55;;;;;;;-7.70;73.77;100343.60;2044178;87;27742;-79
2021/12/26 09:06:37;;;;;;;196.55;74.77;;;;;;;-7.60;73.58;100344.27;2043611;87;29091;-71
2021/12/26 09:09:39;;;;;;;184.75;71.12;;;;;;;-7.48;73.58;100346.30;2043520;87;32258;-71
2021/12/26 09:12:42;;;;;;;183.35;69.58;;;;;;;-7.41;73.37;100344.33;2043802;87;34360;-75
2021/12/26 09:15:44;;;;;;;185.10;72.55;;;;;;;-7.33;73.45;100348.41;2043755;87;29328;-74
2021/12/26 09:18:46;;;;;;;183.97;71.95;;;;;;;-7.25;73.50;100354.66;2043502;87;27749;-71
2021/12/26 09:21:48;;;;;;;194.65;72.92;;;;;;;-7.14;73.58;100352.75;2043719;87;29028;-62
2021/12/26 09:24:51;;;;;;;177.32;71.15;;;;;;;-7.04;73.51;100358.62;2044075;87;31592;-77
2021/12/26 09:27:55;;;;;;;203.52;72.92;;;;;;;-6.95;73.59;100360.55;2043736;87;33379;-61
2021/12/26 09:30:56;;;;;;;176.45;72.87;;;;;;;-6.80;73.73;100361.33;2043495;87;30352;-71
2021/12/26 09:33:59;;;;;;;190.22;75.92;;;;;;;-6.68;73.70;100360.69;2043818;87;28304;-64
2021/12/26 09:37:03;;;;;;;178.18;71.87;;;;;;;-6.56;73.79;100367.48;2043875;87;28394;-61
2021/12/26 09:40:09;;;;;;;186.12;71.02;;;;;;;-6.45;73.87;100363.37;2043533;87;28198;-60
2021/12/26 09:43:11;;;;;;;152.70;62.80;;;;;;;-6.36;73.67;100357.88;2043804;87;32976;-61
2021/12/26 09:46:13;;;;;;;155.52;62.30;;;;;;;-6.26;73.78;100360.70;2043509;87;29128;-66
2021/12/26 09:49:15;;;;;;;149.87;62.83;;;;;;;-6.18;73.72;100354.33;2043703;87;27711;-61
2021/12/26 09:52:17;;;;;;;148.20;59.60;;;;;;;-6.07;73.74;100349.33;2038455;86;29063;-60
2021/12/26 09:55:21;;;;;;;116.55;49.45;;;;;;;-6.00;73.67;100351.21;2035315;86;32351;-64
2021/12/26 09:58:23;;;;;;;108.07;45.83;;;;;;;-5.92;73.69;100346.09;2035633;87;33755;-60
2021/12/26 10:01:41;;;;;;;106.80;47.40;;;;;;;-5.83;73.82;100351.47;2035344;86;29786;-63
2021/12/26 10:04:45;;;;;;;102.35;45.15;;;;;;;-5.75;73.75;100350.30;2035808;87;27907;-60
2021/12/26 10:07:46;;;;;;;110.43;47.13;;;;;;;-5.67;73.67;100340.00;2036098;87;28669;-66
2021/12/26 10:11:16;;;;;;;107.22;43.23;;;;;;;-5.58;73.79;100337.56;2013453;87;32177;-60
2021/12/26 10:14:25;;;;;;;114.97;44.67;;;;;;;-5.49;73.69;100331.61;2035599;87;34170;-60
2021/12/26 10:17:28;;;;;;;110.28;46.77;;;;;;;-5.43;73.44;100338.66;2034621;87;30540;-60
2021/12/26 10:20:35;;;;;;;117.08;49.50;;;;;;;-5.41;73.42;100333.91;2035586;87;27898;-60
2021/12/26 10:23:37;;;;;;;108.25;44.75;;;;;;;-5.35;73.29;100330.09;2035497;87;29238;-60
2021/12/26 10:26:43;;;;;;;122.17;50.65;;;;;;;-5.29;73.23;100333.67;2035538;87;32324;-65
2021/12/26 10:29:57;;;;;;;116.82;48.45;;;;;;;-5.25;73.28;100329.81;2035406;87;33844;-60
2021/12/26 10:32:59;;;;;;;104.90;46.23;;;;;;;-5.16;73.36;100326.47;2035481;87;29391;-60
2021/12/26 10:36:09;;;;;;;129.03;57.48;;;;;;;-5.13;73.04;100325.21;2035546;87;27757;-61
2021/12/26 10:39:17;;;;;;;119.77;49.33;;;;;;;-5.04;73.33;100327.94;2035380;86;29249;-61
2021/12/26 10:42:30;;;;;;;113.17;48.73;;;;;;;-4.98;73.18;100325.84;2035745;87;31105;-61
2021/12/26 10:45:35;;;;;;;115.80;48.10;;;;;;;-4.89;73.17;100331.63;2035368;87;34189;-62
2021/12/26 10:48:37;;;;;;;119.65;49.73;;;;;;;-4.82;73.15;100332.17;2035421;87;30580;-62
2021/12/26 10:51:38;;;;;;;123.95;53.55;;;;;;;-4.76;73.02;100330.06;2035547;87;28179;-61
2021/12/26 10:54:44;;;;;;;109.65;51.35;;;;;;;-4.74;72.91;100328.36;2035299;87;29921;-62
2021/12/26 10:57:50;;;;;;;108.67;48.08;;;;;;;-4.70;72.74;100337.11;2035270;87;31659;-61
2021/12/26 11:00:58;;;;;;;126.45;51.05;;;;;;;-4.66;72.57;100331.06;2036162;87;32791;-60
2021/12/26 11:04:07;;;;;;;113.12;47.83;;;;;;;-4.66;72.51;100331.06;2035717;87;29503;-62
2021/12/26 11:07:10;;;;;;;111.77;48.78;;;;;;;-4.65;72.56;100335.00;2035491;87;27693;-61
2021/12/26 11:10:17;;;;;;;108.80;46.42;;;;;;;-4.63;72.55;100328.50;2035599;87;29491;-61
2021/12/26 11:13:23;;;;;;;85.50;38.20;;;;;;;-4.60;72.45;100328.52;2035633;87;31943;-62
2021/12/26 11:16:31;;;;;;;85.70;33.25;;;;;;;-4.57;72.50;100322.02;2035469;87;32981;-67
2021/12/26 11:19:46;;;;;;;71.05;31.48;;;;;;;-4.49;72.44;100329.95;2032613;87;29409;-63
2021/12/26 11:22:48;;;;;;;72.97;31.57;;;;;;;-4.46;71.73;100324.77;2035614;87;27786;-61
2021/12/26 11:25:58;;;;;;;78.28;32.40;;;;;;;-4.45;71.70;100318.69;2035422;87;28825;-62
2021/12/26 11:29:02;;;;;;;64.65;26.17;;;;;;;-4.40;71.94;100323.96;2036362;87;31204;-61
2021/12/26 11:32:06;;;;;;;62.75;22.35;;;;;;;-4.36;71.58;100328.37;2035871;87;32231;-62
2021/12/26 11:35:09;;;;;;;53.65;21.80;;;;;;;-4.31;71.32;100323.64;2035861;87;30144;-62
2021/12/26 11:38:16;;;;;;;44.33;20.15;;;;;;;-4.22;71.21;100324.63;2035945;87;27628;-61
2021/12/26 11:41:38;;;;;;;89.20;41.65;;;;;;;-4.09;70.05;100323.00;2035312;87;28757;-64
2021/12/26 11:45:22;;;;;;;93.57;40.57;;;;;;;-4.05;71.12;100315.19;2035806;87;31527;-66
2021/12/26 11:48:42;;;;;;;98.78;42.73;;;;;;;-4.03;71.41;100308.23;2001382;88;33394;-62
2021/12/26 11:52:12;;;;;;;92.85;41.68;;;;;;;-4.03;71.44;100302.14;2000999;88;29822;-63
2021/12/26 11:55:44;;;;;;;83.55;37.95;;;;;;;-4.02;71.52;100316.53;2001823;88;27675;-63
2021/12/26 11:59:04;;;;;;;88.47;37.83;;;;;;;-4.05;71.30;100304.72;2001246;89;30050;-70
2021/12/26 12:02:06;;;;;;;93.20;42.33;;;;;;;-4.05;70.99;100304.72;2000905;89;31934;-66
2021/12/26 12:05:12;;;;;;;97.25;40.80;;;;;;;-4.06;71.50;100308.23;2001465;89;33115;-73
2021/12/26 12:08:19;;;;;;;81.57;39.30;;;;;;;-4.04;71.51;100306.48;2001432;88;29344;-66
2021/12/26 12:11:21;;;;;;;89.55;37.70;;;;;;;-3.99;71.60;100306.55;2000882;89;27699;-63
2021/12/26 12:14:58;;;;;;;84.52;36.23;;;;;;;-3.96;71.56;100303.94;2001143;88;29924;-72
2021/12/26 12:18:14;;;;;;;81.97;34.25;;;;;;;-3.91;71.58;100304.01;2033774;87;31373;-72
2021/12/26 12:21:47;;;;;;;75.60;34.35;;;;;;;-3.91;71.24;100304.87;2035539;87;33839;-65
2021/12/26 12:24:51;;;;;;;85.07;33.23;;;;;;;-3.87;71.25;100302.73;2013158;87;29351;-77
2021/12/26 12:28:13;;;;;;;76.35;31.27;;;;;;;-3.84;71.14;100297.95;2031527;87;27534;-74
2021/12/26 12:31:18;;;;;;;82.12;30.88;;;;;;;-3.82;71.00;100293.61;2035772;87;29563;-74
2021/12/26 12:34:21;;;;;;;75.47;29.75;;;;;;;-3.80;70.76;100299.73;2036018;87;33089;-75
2021/12/26 12:37:46;;;;;;;100.18;41.73;;;;;;;-3.79;70.71;100297.98;2011864;87;34464;-68
2021/12/26 12:40:48;;;;;;;80.03;32.30;;;;;;;-3.76;70.57;100296.30;2035545;87;29629;-73
2021/12/26 12:43:49;;;;;;;66.37;29.07;;;;;;;-3.76;70.57;100290.16;2035191;87;27705;-68
2021/12/26 12:47:05;;;;;;;72.67;26.80;;;;;;;-3.73;69.91;100283.66;2035417;86;29358;-73
2021/12/26 12:50:08;;;;;;;65.52;25.85;;;;;;;-3.74;69.79;100275.35;2035607;87;31032;-70
2021/12/26 12:53:32;;;;;;;66.30;26.15;;;;;;;-3.72;70.03;100273.63;2049976;86;33768;-67
2021/12/26 12:56:38;;;;;;;55.92;25.77;;;;;;;-3.70;70.12;100273.21;2068378;86;30568;-71
2021/12/26 12:59:42;;;;;;;60.40;25.15;;;;;;;-3.73;70.11;100272.77;2068650;85;27762;-78
2021/12/26 13:02:45;;;;;;;68.67;31.62;;;;;;;-3.71;70.11;100270.14;2067826;86;29490;-76
2021/12/26 13:05:49;;;;;;;63.58;26.62;;;;;;;-3.71;70.05;100276.25;2069149;85;32305;-79
2021/12/26 13:08:52;;;;;;;58.33;24.98;;;;;;;-3.68;70.08;100266.25;2069648;85;33867;-72
2021/12/26 13:12:04;;;;;;;62.35;26.02;;;;;;;-3.69;69.78;100264.05;2069135;86;31390;-76
2021/12/26 13:15:07;;;;;;;62.53;27.52;;;;;;;-3.69;69.84;100266.66;2040102;86;27706;-69
2021/12/26 13:18:10;;;;;;;63.23;26.50;;;;;;;-3.69;69.67;100261.43;2035593;87;29926;-62
2021/12/26 13:21:13;;;;;;;68.78;25.12;;;;;;;-3.69;69.18;100256.64;2036145;86;32194;-68
2021/12/26 13:24:15;;;;;;;63.50;25.30;;;;;;;-3.68;69.57;100252.71;2035408;87;34349;-68
2021/12/26 13:27:25;;;;;;;48.95;22.17;;;;;;;-3.68;69.32;100253.16;2035613;86;30546;-70
2021/12/26 13:30:30;;;;;;;54.88;23.77;;;;;;;-3.68;69.08;100259.27;2035723;87;27704;-77
2021/12/26 13:33:34;;;;;;;57.88;23.73;;;;;;;-3.68;69.32;100258.40;2036703;87;28663;-77
2021/12/26 13:36:36;;;;;;;54.98;24.45;;;;;;;-3.67;69.38;100258.40;2035980;87;32135;-75
2021/12/26 13:39:38;;;;;;;54.85;24.10;;;;;;;-3.67;69.51;100260.16;2035801;87;34372;-75
2021/12/26 13:42:40;;;;;;;59.98;27.27;;;;;;;-3.67;69.58;100261.46;2035691;87;29415;-82
2021/12/26 13:45:44;;;;;;;58.83;27.20;;;;;;;-3.68;69.51;100265.80;2035612;87;27742;-68
2021/12/26 13:48:59;;;;;;;63.90;26.48;;;;;;;-3.69;69.51;100269.28;2035764;87;28704;-70